sensor_id;sensor_type;location;lat;lon;timestamp;P1;durP1;ratioP1;P2;durP2;ratioP2
79611;SDS011;69094;48.154;11.536;2023-08-06T00:02:06;6.07;;;4.10;;
79611;SDS011;69094;48.154;11.536;2023-08-06T00:04:31;5.53;;;3.87;;
79611;SDS011;69094;48.154;11.536;2023-08-06T00:06:57;5.93;;;4.07;;
79611;SDS011;69094;48.154;11.536;2023-08-06T00:09:22;5.17;;;3.70;;
79611;SDS011;69094;48.154;11.536;2023-08-06T00:11:47;5.43;;;3.70;;
79611;SDS011;69094;48.154;11.536;2023-08-06T00:14:13;6.25;;;4.10;;
79611;SDS011;69094;48.154;11.536;2023-08-06T00:16:42;7.53;;;3.53;;
79611;SDS011;69094;48.154;11.536;2023-08-06T00:19:08;6.63;;;3.35;;
79611;SDS011;69094;48.154;11.536;2023-08-06T00:21:33;5.82;;;3.85;;
79611;SDS011;69094;48.154;11.536;2023-08-06T00:23:58;6.83;;;3.83;;
79611;SDS011;69094;48.154;11.536;2023-08-06T00:26:24;5.67;;;3.50;;
79611;SDS011;69094;48.154;11.536;2023-08-06T00:28:49;4.30;;;3.08;;
79611;SDS011;69094;48.154;11.536;2023-08-06T00:31:15;4.40;;;2.93;;
79611;SDS011;69094;48.154;11.536;2023-08-06T00:33:40;5.13;;;3.17;;
79611;SDS011;69094;48.154;11.536;2023-08-06T00:36:05;7.75;;;3.85;;
79611;SDS011;69094;48.154;11.536;2023-08-06T00:38:31;6.53;;;3.30;;
79611;SDS011;69094;48.154;11.536;2023-08-06T00:40:56;5.35;;;3.28;;
79611;SDS011;69094;48.154;11.536;2023-08-06T00:43:21;5.77;;;3.40;;
79611;SDS011;69094;48.154;11.536;2023-08-06T00:45:47;6.53;;;3.40;;
79611;SDS011;69094;48.154;11.536;2023-08-06T00:48:12;4.75;;;3.33;;
79611;SDS011;69094;48.154;11.536;2023-08-06T00:50:38;5.47;;;3.53;;
79611;SDS011;69094;48.154;11.536;2023-08-06T00:53:03;3.97;;;3.13;;
79611;SDS011;69094;48.154;11.536;2023-08-06T00:55:29;4.70;;;3.10;;
79611;SDS011;69094;48.154;11.536;2023-08-06T00:57:54;4.50;;;3.22;;
79611;SDS011;69094;48.154;11.536;2023-08-06T01:00:23;4.70;;;3.05;;
79611;SDS011;69094;48.154;11.536;2023-08-06T01:02:49;7.15;;;3.30;;
79611;SDS011;69094;48.154;11.536;2023-08-06T01:05:15;5.18;;;3.55;;
79611;SDS011;69094;48.154;11.536;2023-08-06T01:07:51;4.75;;;3.00;;
79611;SDS011;69094;48.154;11.536;2023-08-06T01:15:55;4.47;;;3.28;;
79611;SDS011;69094;48.154;11.536;2023-08-06T01:18:24;4.07;;;3.13;;
79611;SDS011;69094;48.154;11.536;2023-08-06T01:20:49;5.10;;;3.28;;
79611;SDS011;69094;48.154;11.536;2023-08-06T01:23:15;5.75;;;3.35;;
79611;SDS011;69094;48.154;11.536;2023-08-06T01:28:44;6.93;;;3.67;;
79611;SDS011;69094;48.154;11.536;2023-08-06T01:31:31;5.95;;;3.40;;
79611;SDS011;69094;48.154;11.536;2023-08-06T01:34:00;5.55;;;4.10;;
79611;SDS011;69094;48.154;11.536;2023-08-06T01:36:28;6.95;;;3.88;;
79611;SDS011;69094;48.154;11.536;2023-08-06T01:38:53;6.55;;;3.88;;
79611;SDS011;69094;48.154;11.536;2023-08-06T01:41:19;6.30;;;3.88;;
79611;SDS011;69094;48.154;11.536;2023-08-06T01:43:44;6.28;;;4.15;;
79611;SDS011;69094;48.154;11.536;2023-08-06T01:46:10;7.60;;;4.20;;
79611;SDS011;69094;48.154;11.536;2023-08-06T01:48:35;6.15;;;3.92;;
79611;SDS011;69094;48.154;11.536;2023-08-06T01:51:00;5.95;;;3.80;;
79611;SDS011;69094;48.154;11.536;2023-08-06T01:53:28;6.75;;;4.20;;
79611;SDS011;69094;48.154;11.536;2023-08-06T01:55:53;6.83;;;3.83;;
79611;SDS011;69094;48.154;11.536;2023-08-06T01:58:19;8.53;;;4.03;;
79611;SDS011;69094;48.154;11.536;2023-08-06T02:00:44;7.47;;;4.20;;
79611;SDS011;69094;48.154;11.536;2023-08-06T02:03:09;5.75;;;3.92;;
79611;SDS011;69094;48.154;11.536;2023-08-06T02:05:35;6.03;;;3.88;;
79611;SDS011;69094;48.154;11.536;2023-08-06T02:08:00;6.23;;;3.43;;
79611;SDS011;69094;48.154;11.536;2023-08-06T02:10:26;4.80;;;3.17;;
79611;SDS011;69094;48.154;11.536;2023-08-06T02:12:51;5.40;;;3.60;;
79611;SDS011;69094;48.154;11.536;2023-08-06T02:15:16;6.03;;;3.93;;
79611;SDS011;69094;48.154;11.536;2023-08-06T02:17:41;6.63;;;3.63;;
79611;SDS011;69094;48.154;11.536;2023-08-06T02:20:07;3.87;;;2.70;;
79611;SDS011;69094;48.154;11.536;2023-08-06T02:22:33;7.65;;;3.45;;
79611;SDS011;69094;48.154;11.536;2023-08-06T02:24:58;4.60;;;3.10;;
79611;SDS011;69094;48.154;11.536;2023-08-06T02:27:24;7.03;;;3.30;;
79611;SDS011;69094;48.154;11.536;2023-08-06T02:29:49;4.43;;;3.13;;
79611;SDS011;69094;48.154;11.536;2023-08-06T02:32:15;5.83;;;3.03;;
79611;SDS011;69094;48.154;11.536;2023-08-06T02:34:40;5.67;;;3.20;;
79611;SDS011;69094;48.154;11.536;2023-08-06T02:37:05;4.57;;;3.03;;
79611;SDS011;69094;48.154;11.536;2023-08-06T02:39:31;4.63;;;2.83;;
79611;SDS011;69094;48.154;11.536;2023-08-06T02:41:56;4.40;;;2.97;;
79611;SDS011;69094;48.154;11.536;2023-08-06T02:44:21;4.30;;;2.73;;
79611;SDS011;69094;48.154;11.536;2023-08-06T02:46:47;3.40;;;2.13;;
79611;SDS011;69094;48.154;11.536;2023-08-06T02:49:12;3.65;;;2.67;;
79611;SDS011;69094;48.154;11.536;2023-08-06T02:51:37;3.57;;;2.50;;
79611;SDS011;69094;48.154;11.536;2023-08-06T02:54:03;2.70;;;2.33;;
79611;SDS011;69094;48.154;11.536;2023-08-06T02:56:28;6.33;;;2.70;;
79611;SDS011;69094;48.154;11.536;2023-08-06T02:58:53;4.00;;;2.73;;
79611;SDS011;69094;48.154;11.536;2023-08-06T03:01:18;4.00;;;2.67;;
79611;SDS011;69094;48.154;11.536;2023-08-06T03:03:44;5.93;;;2.92;;
79611;SDS011;69094;48.154;11.536;2023-08-06T03:06:09;4.93;;;3.07;;
79611;SDS011;69094;48.154;11.536;2023-08-06T03:08:35;6.50;;;2.85;;
79611;SDS011;69094;48.154;11.536;2023-08-06T03:11:00;4.85;;;2.90;;
79611;SDS011;69094;48.154;11.536;2023-08-06T03:13:26;3.73;;;2.57;;
79611;SDS011;69094;48.154;11.536;2023-08-06T03:15:56;3.65;;;2.88;;
79611;SDS011;69094;48.154;11.536;2023-08-06T03:18:23;3.90;;;2.50;;
79611;SDS011;69094;48.154;11.536;2023-08-06T03:20:48;3.45;;;2.13;;
79611;SDS011;69094;48.154;11.536;2023-08-06T03:23:14;4.63;;;2.70;;
79611;SDS011;69094;48.154;11.536;2023-08-06T03:25:39;3.30;;;2.30;;
79611;SDS011;69094;48.154;11.536;2023-08-06T03:28:05;4.13;;;2.57;;
79611;SDS011;69094;48.154;11.536;2023-08-06T03:30:30;2.92;;;2.28;;
79611;SDS011;69094;48.154;11.536;2023-08-06T03:32:55;3.53;;;2.30;;
79611;SDS011;69094;48.154;11.536;2023-08-06T03:35:21;5.27;;;2.53;;
79611;SDS011;69094;48.154;11.536;2023-08-06T03:37:46;4.10;;;2.30;;
79611;SDS011;69094;48.154;11.536;2023-08-06T03:40:12;5.82;;;2.65;;
79611;SDS011;69094;48.154;11.536;2023-08-06T03:42:37;3.90;;;2.80;;
79611;SDS011;69094;48.154;11.536;2023-08-06T03:45:03;3.30;;;2.27;;
79611;SDS011;69094;48.154;11.536;2023-08-06T03:47:28;3.17;;;2.50;;
79611;SDS011;69094;48.154;11.536;2023-08-06T03:49:53;3.75;;;2.75;;
79611;SDS011;69094;48.154;11.536;2023-08-06T03:52:19;2.70;;;2.10;;
79611;SDS011;69094;48.154;11.536;2023-08-06T03:54:44;3.57;;;2.53;;
79611;SDS011;69094;48.154;11.536;2023-08-06T03:57:10;3.78;;;2.00;;
79611;SDS011;69094;48.154;11.536;2023-08-06T03:59:35;3.70;;;2.40;;
79611;SDS011;69094;48.154;11.536;2023-08-06T04:02:01;3.95;;;2.25;;
79611;SDS011;69094;48.154;11.536;2023-08-06T04:04:26;4.88;;;2.30;;
79611;SDS011;69094;48.154;11.536;2023-08-06T04:06:51;3.00;;;2.00;;
79611;SDS011;69094;48.154;11.536;2023-08-06T04:09:17;4.93;;;1.97;;
79611;SDS011;69094;48.154;11.536;2023-08-06T04:11:42;3.70;;;2.23;;
79611;SDS011;69094;48.154;11.536;2023-08-06T04:14:07;3.90;;;1.90;;
79611;SDS011;69094;48.154;11.536;2023-08-06T04:16:33;3.27;;;2.20;;
79611;SDS011;69094;48.154;11.536;2023-08-06T04:18:58;4.10;;;2.33;;
79611;SDS011;69094;48.154;11.536;2023-08-06T04:21:23;3.05;;;2.30;;
79611;SDS011;69094;48.154;11.536;2023-08-06T04:23:49;2.03;;;1.80;;
79611;SDS011;69094;48.154;11.536;2023-08-06T04:26:14;2.67;;;1.90;;
79611;SDS011;69094;48.154;11.536;2023-08-06T04:28:39;4.10;;;2.17;;
79611;SDS011;69094;48.154;11.536;2023-08-06T04:31:05;2.83;;;1.73;;
79611;SDS011;69094;48.154;11.536;2023-08-06T04:33:30;3.50;;;2.00;;
79611;SDS011;69094;48.154;11.536;2023-08-06T04:35:56;4.60;;;2.30;;
79611;SDS011;69094;48.154;11.536;2023-08-06T04:38:23;2.10;;;1.88;;
79611;SDS011;69094;48.154;11.536;2023-08-06T04:40:50;2.85;;;2.08;;
79611;SDS011;69094;48.154;11.536;2023-08-06T04:43:15;2.47;;;1.52;;
79611;SDS011;69094;48.154;11.536;2023-08-06T04:45:47;3.10;;;1.80;;
79611;SDS011;69094;48.154;11.536;2023-08-06T04:48:13;2.63;;;1.52;;
79611;SDS011;69094;48.154;11.536;2023-08-06T04:50:43;4.00;;;2.22;;
79611;SDS011;69094;48.154;11.536;2023-08-06T04:53:09;2.42;;;1.92;;
79611;SDS011;69094;48.154;11.536;2023-08-06T04:55:34;2.93;;;2.13;;
79611;SDS011;69094;48.154;11.536;2023-08-06T04:57:59;2.40;;;1.40;;
79611;SDS011;69094;48.154;11.536;2023-08-06T05:00:25;3.50;;;2.00;;
79611;SDS011;69094;48.154;11.536;2023-08-06T05:02:50;2.70;;;1.80;;
79611;SDS011;69094;48.154;11.536;2023-08-06T05:05:15;3.57;;;2.10;;
79611;SDS011;69094;48.154;11.536;2023-08-06T05:07:41;2.97;;;1.90;;
79611;SDS011;69094;48.154;11.536;2023-08-06T05:10:06;4.80;;;2.07;;
79611;SDS011;69094;48.154;11.536;2023-08-06T05:12:32;3.35;;;2.00;;
79611;SDS011;69094;48.154;11.536;2023-08-06T05:14:57;4.03;;;1.97;;
79611;SDS011;69094;48.154;11.536;2023-08-06T05:17:22;3.20;;;2.30;;
79611;SDS011;69094;48.154;11.536;2023-08-06T05:19:49;2.72;;;1.80;;
79611;SDS011;69094;48.154;11.536;2023-08-06T05:22:14;3.38;;;1.98;;
79611;SDS011;69094;48.154;11.536;2023-08-06T05:24:39;2.20;;;1.63;;
79611;SDS011;69094;48.154;11.536;2023-08-06T05:27:05;3.30;;;2.00;;
79611;SDS011;69094;48.154;11.536;2023-08-06T05:29:30;2.75;;;1.92;;
79611;SDS011;69094;48.154;11.536;2023-08-06T05:31:56;3.27;;;1.90;;
79611;SDS011;69094;48.154;11.536;2023-08-06T05:34:21;2.67;;;2.03;;
79611;SDS011;69094;48.154;11.536;2023-08-06T05:36:46;2.93;;;1.70;;
79611;SDS011;69094;48.154;11.536;2023-08-06T05:39:12;3.80;;;2.10;;
79611;SDS011;69094;48.154;11.536;2023-08-06T05:41:37;3.83;;;2.00;;
79611;SDS011;69094;48.154;11.536;2023-08-06T05:44:02;3.33;;;2.00;;
79611;SDS011;69094;48.154;11.536;2023-08-06T05:46:28;3.28;;;2.00;;
79611;SDS011;69094;48.154;11.536;2023-08-06T05:48:53;3.10;;;1.93;;
79611;SDS011;69094;48.154;11.536;2023-08-06T05:51:19;2.50;;;1.60;;
79611;SDS011;69094;48.154;11.536;2023-08-06T05:53:44;3.33;;;1.98;;
79611;SDS011;69094;48.154;11.536;2023-08-06T05:56:10;2.20;;;1.70;;
79611;SDS011;69094;48.154;11.536;2023-08-06T05:58:36;2.50;;;1.73;;
79611;SDS011;69094;48.154;11.536;2023-08-06T06:01:01;2.47;;;1.70;;
79611;SDS011;69094;48.154;11.536;2023-08-06T06:03:26;3.90;;;1.57;;
79611;SDS011;69094;48.154;11.536;2023-08-06T06:05:52;2.43;;;1.63;;
79611;SDS011;69094;48.154;11.536;2023-08-06T06:08:18;3.20;;;1.83;;
79611;SDS011;69094;48.154;11.536;2023-08-06T06:10:43;2.60;;;1.70;;
79611;SDS011;69094;48.154;11.536;2023-08-06T06:13:08;2.97;;;1.57;;
79611;SDS011;69094;48.154;11.536;2023-08-06T06:15:34;2.60;;;1.75;;
79611;SDS011;69094;48.154;11.536;2023-08-06T06:17:59;1.63;;;1.33;;
79611;SDS011;69094;48.154;11.536;2023-08-06T06:20:25;4.07;;;1.80;;
79611;SDS011;69094;48.154;11.536;2023-08-06T06:22:50;2.42;;;1.58;;
79611;SDS011;69094;48.154;11.536;2023-08-06T06:25:15;5.33;;;1.40;;
79611;SDS011;69094;48.154;11.536;2023-08-06T06:27:41;3.77;;;1.53;;
79611;SDS011;69094;48.154;11.536;2023-08-06T06:30:06;2.55;;;1.20;;
79611;SDS011;69094;48.154;11.536;2023-08-06T06:32:32;2.33;;;1.40;;
79611;SDS011;69094;48.154;11.536;2023-08-06T06:34:59;1.80;;;1.30;;
79611;SDS011;69094;48.154;11.536;2023-08-06T06:37:24;2.22;;;1.50;;
79611;SDS011;69094;48.154;11.536;2023-08-06T06:39:50;2.73;;;1.40;;
79611;SDS011;69094;48.154;11.536;2023-08-06T06:42:15;1.57;;;1.30;;
79611;SDS011;69094;48.154;11.536;2023-08-06T06:44:41;2.13;;;1.50;;
79611;SDS011;69094;48.154;11.536;2023-08-06T06:47:06;3.13;;;1.00;;
79611;SDS011;69094;48.154;11.536;2023-08-06T06:49:32;4.28;;;1.40;;
79611;SDS011;69094;48.154;11.536;2023-08-06T06:51:57;3.65;;;1.45;;
79611;SDS011;69094;48.154;11.536;2023-08-06T06:54:22;2.90;;;1.50;;
79611;SDS011;69094;48.154;11.536;2023-08-06T06:56:48;2.00;;;1.10;;
79611;SDS011;69094;48.154;11.536;2023-08-06T06:59:13;2.13;;;1.40;;
79611;SDS011;69094;48.154;11.536;2023-08-06T07:01:38;2.80;;;1.30;;
79611;SDS011;69094;48.154;11.536;2023-08-06T07:04:04;3.33;;;1.13;;
79611;SDS011;69094;48.154;11.536;2023-08-06T07:06:30;1.05;;;0.70;;
79611;SDS011;69094;48.154;11.536;2023-08-06T07:08:56;1.52;;;0.90;;
79611;SDS011;69094;48.154;11.536;2023-08-06T07:11:21;2.28;;;1.08;;
79611;SDS011;69094;48.154;11.536;2023-08-06T07:13:46;2.55;;;1.10;;
79611;SDS011;69094;48.154;11.536;2023-08-06T07:16:12;1.80;;;0.90;;
79611;SDS011;69094;48.154;11.536;2023-08-06T07:18:37;2.03;;;0.60;;
79611;SDS011;69094;48.154;11.536;2023-08-06T07:21:02;1.48;;;0.73;;
79611;SDS011;69094;48.154;11.536;2023-08-06T07:23:28;1.03;;;0.80;;
79611;SDS011;69094;48.154;11.536;2023-08-06T07:25:53;1.20;;;0.70;;
79611;SDS011;69094;48.154;11.536;2023-08-06T07:28:19;3.08;;;0.80;;
79611;SDS011;69094;48.154;11.536;2023-08-06T07:30:44;0.90;;;0.70;;
79611;SDS011;69094;48.154;11.536;2023-08-06T07:33:10;0.98;;;0.60;;
79611;SDS011;69094;48.154;11.536;2023-08-06T07:35:36;1.85;;;0.70;;
79611;SDS011;69094;48.154;11.536;2023-08-06T07:38:01;0.90;;;0.70;;
79611;SDS011;69094;48.154;11.536;2023-08-06T07:40:27;0.95;;;0.75;;
79611;SDS011;69094;48.154;11.536;2023-08-06T07:42:53;1.17;;;0.70;;
79611;SDS011;69094;48.154;11.536;2023-08-06T07:45:19;1.83;;;0.90;;
79611;SDS011;69094;48.154;11.536;2023-08-06T07:47:44;1.50;;;0.93;;
79611;SDS011;69094;48.154;11.536;2023-08-06T07:50:10;1.33;;;0.67;;
79611;SDS011;69094;48.154;11.536;2023-08-06T07:52:35;2.22;;;0.80;;
79611;SDS011;69094;48.154;11.536;2023-08-06T07:55:01;1.17;;;0.70;;
79611;SDS011;69094;48.154;11.536;2023-08-06T07:57:30;2.67;;;1.00;;
79611;SDS011;69094;48.154;11.536;2023-08-06T07:59:55;2.95;;;0.73;;
79611;SDS011;69094;48.154;11.536;2023-08-06T08:02:21;1.88;;;0.60;;
79611;SDS011;69094;48.154;11.536;2023-08-06T08:04:46;1.33;;;0.80;;
79611;SDS011;69094;48.154;11.536;2023-08-06T08:07:15;1.98;;;1.23;;
79611;SDS011;69094;48.154;11.536;2023-08-06T08:09:41;1.73;;;0.70;;
79611;SDS011;69094;48.154;11.536;2023-08-06T08:12:06;1.57;;;0.80;;
79611;SDS011;69094;48.154;11.536;2023-08-06T08:14:32;1.38;;;0.68;;
79611;SDS011;69094;48.154;11.536;2023-08-06T08:17:03;1.00;;;0.60;;
79611;SDS011;69094;48.154;11.536;2023-08-06T08:19:30;1.83;;;0.80;;
79611;SDS011;69094;48.154;11.536;2023-08-06T08:21:56;10.15;;;3.50;;
79611;SDS011;69094;48.154;11.536;2023-08-06T08:24:21;2.28;;;0.90;;
79611;SDS011;69094;48.154;11.536;2023-08-06T08:26:49;0.73;;;0.50;;
79611;SDS011;69094;48.154;11.536;2023-08-06T08:29:15;1.33;;;0.55;;
79611;SDS011;69094;48.154;11.536;2023-08-06T08:31:40;0.43;;;0.43;;
79611;SDS011;69094;48.154;11.536;2023-08-06T08:34:05;1.50;;;0.70;;
79611;SDS011;69094;48.154;11.536;2023-08-06T08:36:31;0.85;;;0.60;;
79611;SDS011;69094;48.154;11.536;2023-08-06T08:38:56;1.50;;;0.40;;
79611;SDS011;69094;48.154;11.536;2023-08-06T08:41:22;2.97;;;0.82;;
79611;SDS011;69094;48.154;11.536;2023-08-06T08:43:49;2.13;;;0.50;;
79611;SDS011;69094;48.154;11.536;2023-08-06T08:46:16;0.70;;;0.50;;
79611;SDS011;69094;48.154;11.536;2023-08-06T08:48:43;2.88;;;0.65;;
79611;SDS011;69094;48.154;11.536;2023-08-06T08:51:09;0.60;;;0.52;;
79611;SDS011;69094;48.154;11.536;2023-08-06T08:53:36;1.08;;;0.45;;
79611;SDS011;69094;48.154;11.536;2023-08-06T08:56:04;0.57;;;0.30;;
79611;SDS011;69094;48.154;11.536;2023-08-06T08:58:30;2.25;;;0.30;;
79611;SDS011;69094;48.154;11.536;2023-08-06T09:00:55;0.55;;;0.30;;
79611;SDS011;69094;48.154;11.536;2023-08-06T09:03:21;0.65;;;0.40;;
79611;SDS011;69094;48.154;11.536;2023-08-06T09:05:48;1.70;;;0.85;;
79611;SDS011;69094;48.154;11.536;2023-08-06T09:08:17;2.60;;;0.40;;
79611;SDS011;69094;48.154;11.536;2023-08-06T09:10:44;0.80;;;0.50;;
79611;SDS011;69094;48.154;11.536;2023-08-06T09:13:13;0.90;;;0.40;;
79611;SDS011;69094;48.154;11.536;2023-08-06T09:15:38;0.77;;;0.30;;
79611;SDS011;69094;48.154;11.536;2023-08-06T09:18:10;2.33;;;0.30;;
79611;SDS011;69094;48.154;11.536;2023-08-06T09:20:37;1.77;;;0.77;;
79611;SDS011;69094;48.154;11.536;2023-08-06T09:23:07;0.32;;;0.30;;
79611;SDS011;69094;48.154;11.536;2023-08-06T09:25:36;0.38;;;0.30;;
79611;SDS011;69094;48.154;11.536;2023-08-06T09:28:07;0.98;;;0.30;;
79611;SDS011;69094;48.154;11.536;2023-08-06T09:30:33;0.93;;;0.30;;
79611;SDS011;69094;48.154;11.536;2023-08-06T09:33:00;1.20;;;0.30;;
79611;SDS011;69094;48.154;11.536;2023-08-06T09:35:29;2.95;;;1.20;;
79611;SDS011;69094;48.154;11.536;2023-08-06T09:38:06;0.30;;;0.30;;
79611;SDS011;69094;48.154;11.536;2023-08-06T09:40:32;1.00;;;0.63;;
79611;SDS011;69094;48.154;11.536;2023-08-06T09:42:58;0.40;;;0.40;;
79611;SDS011;69094;48.154;11.536;2023-08-06T09:45:57;1.48;;;0.50;;
79611;SDS011;69094;48.154;11.536;2023-08-06T09:48:15;0.32;;;0.32;;
79611;SDS011;69094;48.154;11.536;2023-08-06T09:50:41;0.30;;;0.30;;
79611;SDS011;69094;48.154;11.536;2023-08-06T09:53:07;0.73;;;0.33;;
79611;SDS011;69094;48.154;11.536;2023-08-06T09:55:33;0.40;;;0.32;;
79611;SDS011;69094;48.154;11.536;2023-08-06T09:57:59;0.30;;;0.30;;
79611;SDS011;69094;48.154;11.536;2023-08-06T10:00:25;0.40;;;0.30;;
79611;SDS011;69094;48.154;11.536;2023-08-06T10:02:52;0.98;;;0.50;;
79611;SDS011;69094;48.154;11.536;2023-08-06T10:05:21;0.80;;;0.40;;
79611;SDS011;69094;48.154;11.536;2023-08-06T10:07:47;0.20;;;0.10;;
79611;SDS011;69094;48.154;11.536;2023-08-06T10:10:14;0.40;;;0.20;;
79611;SDS011;69094;48.154;11.536;2023-08-06T10:12:40;0.57;;;0.30;;
79611;SDS011;69094;48.154;11.536;2023-08-06T10:15:12;2.03;;;0.30;;
79611;SDS011;69094;48.154;11.536;2023-08-06T10:17:40;1.55;;;0.30;;
79611;SDS011;69094;48.154;11.536;2023-08-06T10:20:07;0.50;;;0.20;;
79611;SDS011;69094;48.154;11.536;2023-08-06T10:22:34;0.90;;;0.30;;
79611;SDS011;69094;48.154;11.536;2023-08-06T10:25:00;0.20;;;0.20;;
79611;SDS011;69094;48.154;11.536;2023-08-06T10:27:30;0.32;;;0.32;;
79611;SDS011;69094;48.154;11.536;2023-08-06T10:32:54;1.45;;;0.30;;
79611;SDS011;69094;48.154;11.536;2023-08-06T10:38:04;8.88;;;4.65;;
79611;SDS011;69094;48.154;11.536;2023-08-06T10:43:04;0.35;;;0.28;;
79611;SDS011;69094;48.154;11.536;2023-08-06T10:45:34;0.70;;;0.60;;
79611;SDS011;69094;48.154;11.536;2023-08-06T10:48:00;0.38;;;0.38;;
79611;SDS011;69094;48.154;11.536;2023-08-06T10:50:26;0.38;;;0.38;;
79611;SDS011;69094;48.154;11.536;2023-08-06T10:52:51;0.20;;;0.20;;
79611;SDS011;69094;48.154;11.536;2023-08-06T10:55:28;2.55;;;0.20;;
79611;SDS011;69094;48.154;11.536;2023-08-06T10:57:54;0.35;;;0.30;;
79611;SDS011;69094;48.154;11.536;2023-08-06T11:00:21;0.30;;;0.28;;
79611;SDS011;69094;48.154;11.536;2023-08-06T11:02:48;0.20;;;0.20;;
79611;SDS011;69094;48.154;11.536;2023-08-06T11:05:15;0.80;;;0.30;;
79611;SDS011;69094;48.154;11.536;2023-08-06T11:07:40;0.60;;;0.30;;
79611;SDS011;69094;48.154;11.536;2023-08-06T11:10:07;0.43;;;0.30;;
79611;SDS011;69094;48.154;11.536;2023-08-06T11:12:34;0.25;;;0.20;;
79611;SDS011;69094;48.154;11.536;2023-08-06T11:15:00;2.85;;;0.47;;
79611;SDS011;69094;48.154;11.536;2023-08-06T11:17:27;0.95;;;0.20;;
79611;SDS011;69094;48.154;11.536;2023-08-06T11:19:53;0.43;;;0.20;;
79611;SDS011;69094;48.154;11.536;2023-08-06T11:22:20;0.28;;;0.20;;
79611;SDS011;69094;48.154;11.536;2023-08-06T11:24:48;0.20;;;0.17;;
79611;SDS011;69094;48.154;11.536;2023-08-06T11:27:14;0.30;;;0.20;;
79611;SDS011;69094;48.154;11.536;2023-08-06T11:29:41;0.20;;;0.20;;
79611;SDS011;69094;48.154;11.536;2023-08-06T11:32:07;0.68;;;0.40;;
79611;SDS011;69094;48.154;11.536;2023-08-06T11:34:33;0.20;;;0.20;;
79611;SDS011;69094;48.154;11.536;2023-08-06T11:36:59;0.32;;;0.28;;
79611;SDS011;69094;48.154;11.536;2023-08-06T11:39:24;0.43;;;0.43;;
79611;SDS011;69094;48.154;11.536;2023-08-06T11:41:50;2.05;;;1.40;;
79611;SDS011;69094;48.154;11.536;2023-08-06T11:44:16;0.52;;;0.40;;
79611;SDS011;69094;48.154;11.536;2023-08-06T11:46:50;0.20;;;0.10;;
79611;SDS011;69094;48.154;11.536;2023-08-06T11:49:21;0.28;;;0.20;;
79611;SDS011;69094;48.154;11.536;2023-08-06T11:52:22;1.23;;;0.30;;
79611;SDS011;69094;48.154;11.536;2023-08-06T11:57:35;0.63;;;0.28;;
79611;SDS011;69094;48.154;11.536;2023-08-06T12:00:02;0.30;;;0.20;;
79611;SDS011;69094;48.154;11.536;2023-08-06T12:02:32;0.08;;;0.08;;
79611;SDS011;69094;48.154;11.536;2023-08-06T12:07:41;0.30;;;0.20;;
79611;SDS011;69094;48.154;11.536;2023-08-06T12:10:10;0.20;;;0.20;;
79611;SDS011;69094;48.154;11.536;2023-08-06T12:12:36;0.30;;;0.10;;
79611;SDS011;69094;48.154;11.536;2023-08-06T12:15:03;0.10;;;0.10;;
79611;SDS011;69094;48.154;11.536;2023-08-06T12:17:29;0.43;;;0.20;;
79611;SDS011;69094;48.154;11.536;2023-08-06T12:19:55;0.20;;;0.20;;
79611;SDS011;69094;48.154;11.536;2023-08-06T12:22:20;0.22;;;0.22;;
79611;SDS011;69094;48.154;11.536;2023-08-06T12:24:46;0.47;;;0.30;;
79611;SDS011;69094;48.154;11.536;2023-08-06T12:27:12;0.20;;;0.20;;
79611;SDS011;69094;48.154;11.536;2023-08-06T12:29:45;0.70;;;0.38;;
79611;SDS011;69094;48.154;11.536;2023-08-06T12:32:13;0.38;;;0.30;;
79611;SDS011;69094;48.154;11.536;2023-08-06T12:34:39;0.30;;;0.30;;
79611;SDS011;69094;48.154;11.536;2023-08-06T12:37:05;0.40;;;0.38;;
79611;SDS011;69094;48.154;11.536;2023-08-06T12:39:32;0.20;;;0.20;;
79611;SDS011;69094;48.154;11.536;2023-08-06T12:41:58;0.63;;;0.20;;
79611;SDS011;69094;48.154;11.536;2023-08-06T12:44:24;3.50;;;0.40;;
79611;SDS011;69094;48.154;11.536;2023-08-06T12:46:51;0.68;;;0.40;;
79611;SDS011;69094;48.154;11.536;2023-08-06T12:49:17;0.40;;;0.32;;
79611;SDS011;69094;48.154;11.536;2023-08-06T12:51:42;0.32;;;0.32;;
79611;SDS011;69094;48.154;11.536;2023-08-06T12:54:08;0.30;;;0.30;;
79611;SDS011;69094;48.154;11.536;2023-08-06T12:56:34;1.20;;;0.50;;
79611;SDS011;69094;48.154;11.536;2023-08-06T12:58:59;0.95;;;0.32;;
79611;SDS011;69094;48.154;11.536;2023-08-06T13:01:24;0.32;;;0.32;;
79611;SDS011;69094;48.154;11.536;2023-08-06T13:03:50;1.43;;;0.20;;
79611;SDS011;69094;48.154;11.536;2023-08-06T13:06:15;0.30;;;0.30;;
79611;SDS011;69094;48.154;11.536;2023-08-06T13:08:40;0.20;;;0.20;;
79611;SDS011;69094;48.154;11.536;2023-08-06T13:11:06;0.30;;;0.30;;
79611;SDS011;69094;48.154;11.536;2023-08-06T13:13:31;0.30;;;0.30;;
79611;SDS011;69094;48.154;11.536;2023-08-06T13:15:56;0.40;;;0.30;;
79611;SDS011;69094;48.154;11.536;2023-08-06T13:18:22;1.43;;;0.40;;
79611;SDS011;69094;48.154;11.536;2023-08-06T13:20:47;0.55;;;0.30;;
79611;SDS011;69094;48.154;11.536;2023-08-06T13:23:14;0.47;;;0.30;;
79611;SDS011;69094;48.154;11.536;2023-08-06T13:25:41;0.60;;;0.30;;
79611;SDS011;69094;48.154;11.536;2023-08-06T13:28:07;0.43;;;0.32;;
79611;SDS011;69094;48.154;11.536;2023-08-06T13:30:32;0.35;;;0.35;;
79611;SDS011;69094;48.154;11.536;2023-08-06T13:33:00;2.80;;;0.40;;
79611;SDS011;69094;48.154;11.536;2023-08-06T13:35:26;0.40;;;0.40;;
79611;SDS011;69094;48.154;11.536;2023-08-06T13:37:51;0.88;;;0.40;;
79611;SDS011;69094;48.154;11.536;2023-08-06T13:40:17;0.13;;;0.13;;
79611;SDS011;69094;48.154;11.536;2023-08-06T13:42:42;0.30;;;0.30;;
79611;SDS011;69094;48.154;11.536;2023-08-06T13:45:08;0.30;;;0.30;;
79611;SDS011;69094;48.154;11.536;2023-08-06T13:47:34;0.30;;;0.30;;
79611;SDS011;69094;48.154;11.536;2023-08-06T13:49:59;0.25;;;0.25;;
79611;SDS011;69094;48.154;11.536;2023-08-06T13:52:25;0.40;;;0.38;;
79611;SDS011;69094;48.154;11.536;2023-08-06T13:54:51;0.40;;;0.40;;
79611;SDS011;69094;48.154;11.536;2023-08-06T13:57:17;0.45;;;0.30;;
79611;SDS011;69094;48.154;11.536;2023-08-06T13:59:42;0.30;;;0.30;;
79611;SDS011;69094;48.154;11.536;2023-08-06T14:02:08;0.52;;;0.20;;
79611;SDS011;69094;48.154;11.536;2023-08-06T14:04:34;0.60;;;0.50;;
79611;SDS011;69094;48.154;11.536;2023-08-06T14:06:59;2.63;;;0.70;;
79611;SDS011;69094;48.154;11.536;2023-08-06T14:09:25;21.17;;;9.30;;
79611;SDS011;69094;48.154;11.536;2023-08-06T14:11:50;0.47;;;0.40;;
79611;SDS011;69094;48.154;11.536;2023-08-06T14:14:15;1.10;;;0.40;;
79611;SDS011;69094;48.154;11.536;2023-08-06T14:16:41;0.70;;;0.40;;
79611;SDS011;69094;48.154;11.536;2023-08-06T14:19:06;0.30;;;0.30;;
79611;SDS011;69094;48.154;11.536;2023-08-06T14:21:32;0.55;;;0.30;;
79611;SDS011;69094;48.154;11.536;2023-08-06T14:23:57;0.85;;;0.40;;
79611;SDS011;69094;48.154;11.536;2023-08-06T14:26:23;0.40;;;0.40;;
79611;SDS011;69094;48.154;11.536;2023-08-06T14:28:48;0.30;;;0.30;;
79611;SDS011;69094;48.154;11.536;2023-08-06T14:31:14;0.85;;;0.40;;
79611;SDS011;69094;48.154;11.536;2023-08-06T14:33:40;0.27;;;0.27;;
79611;SDS011;69094;48.154;11.536;2023-08-06T14:36:05;0.25;;;0.25;;
79611;SDS011;69094;48.154;11.536;2023-08-06T14:38:31;2.40;;;0.35;;
79611;SDS011;69094;48.154;11.536;2023-08-06T14:40:56;1.40;;;0.30;;
79611;SDS011;69094;48.154;11.536;2023-08-06T14:43:22;0.70;;;0.50;;
79611;SDS011;69094;48.154;11.536;2023-08-06T14:45:47;0.40;;;0.40;;
79611;SDS011;69094;48.154;11.536;2023-08-06T14:48:12;0.30;;;0.30;;
79611;SDS011;69094;48.154;11.536;2023-08-06T14:50:38;0.67;;;0.40;;